Agonistis — SVBC3 — position and weather

sailwx.info

Track history (hours):
 
Tides and Currents Weather Stations Pressure Air Temp Water Temp Dewpoint Dewpoint Depression Visibility Wind Speed Wind Dir Waves Ship Positions

Agonistis

Last reported at 2014-Aug-29 03:03 UTC. Time now 2014-Oct-22 21:52 UTC.
Position S 34°19' E 017°55'.
Warning: this ship's position is 54 days out of date.

Length 196 m; draft 11.2 m.

Type: Cargo ship. MMSI: 241048000.

Date/timePositionNaut miles runAvg speedWind from/ knotsBaromVisibWave heightAir tempDewpointWater temp
2014-Aug-29 03:03S 34°19' E 017°55'4 8.2
2014-Aug-29 02:30S 34°19' E 018°00'8 8.7
2014-Aug-29 01:33S 34°23' E 018°09'9 8.6
2014-Aug-29 00:33S 34°26' E 018°19'9 8.8
2014-Aug-28 23:33S 34°30' E 018°28'8 8.4
2014-Aug-28 22:33S 34°33' E 018°38'8 7.9
2014-Aug-28 21:33S 34°37' E 018°46'8 7.9
2014-Aug-28 20:32S 34°41' E 018°55'8 7.4
2014-Aug-28 19:29S 34°44' E 019°03'7 7.7
2014-Aug-28 18:31S 34°47' E 019°11'8 7.2
2014-Aug-28 17:28S 34°50' E 019°20'27 6.4
2014-Aug-28 13:16S 34°58' E 019°51'110 6.1
2014-Aug-27 19:26S 34°47' E 022°04'7 7.5
2014-Aug-27 18:29S 34°46' E 022°13'185 9.2
2014-Aug-26 22:15S 34°10' E 025°53'5210.9
2014-Aug-26 17:29S 33°48' E 026°50'1111.6
2014-Aug-26 16:30S 33°41' E 027°01'1212.3
2014-Aug-26 15:31S 33°34' E 027°13'1412.6
2014-Aug-26 14:23S 33°26' E 027°27'10410.3
2014-Aug-26 04:22S 32°23' E 029°06'7911.6
2014-Aug-25 21:30S 31°24' E 030°08'1612.2
2014-Aug-25 20:11S 31°12' E 030°20'812.2
2014-Aug-25 19:33S 31°05' E 030°25'1311.8
2014-Aug-25 18:28S 30°54' E 030°33'4210.3
2014-Aug-25 14:25S 30°18' E 030°56'7 8.1
2014-Aug-25 13:32S 30°12' E 031°00'7 7.3
2014-Aug-25 12:33S 30°05' E 031°04'7 6.7
2014-Aug-25 11:33S 29°59' E 031°08'6 6.1
2014-Aug-25 10:33S 29°54' E 031°11'4 4.3
2014-Aug-25 09:33S 29°50' E 031°12'3 3.3
2014-Aug-25 08:33S 29°46' E 031°11'8 7.7
2014-Aug-25 07:33S 29°41' E 031°17'8 8.2
2014-Aug-25 06:33S 29°35' E 031°24'8 8.1
2014-Aug-25 05:33S 29°30' E 031°31'8 8.0
2014-Aug-25 04:33S 29°25' E 031°38'8 8.0
2014-Aug-25 03:31S 29°19' E 031°45'  
Track history (hours):
 
Tides and Currents Weather Stations Pressure Air Temp Water Temp Dewpoint Dewpoint Depression Visibility Wind Speed Wind Dir Waves Ship Positions

Agonistis

Last reported at 2014-Aug-29 03:03 UTC. Time now 2014-Oct-22 21:52 UTC.
Position S 34°19' E 017°55'.
Warning: this ship's position is 54 days out of date.

Length 196 m; draft 11.2 m.

Type: Cargo ship. MMSI: 241048000.

Date/timePositionNaut miles runAvg speedWind from/ knotsBaromVisibWave heightAir tempDewpointWater temp
2014-Aug-29 03:03S 34°19' E 017°55'4 8.2
2014-Aug-29 02:30S 34°19' E 018°00'8 8.7
2014-Aug-29 01:33S 34°23' E 018°09'9 8.6
2014-Aug-29 00:33S 34°26' E 018°19'9 8.8
2014-Aug-28 23:33S 34°30' E 018°28'8 8.4
2014-Aug-28 22:33S 34°33' E 018°38'8 7.9
2014-Aug-28 21:33S 34°37' E 018°46'8 7.9
2014-Aug-28 20:32S 34°41' E 018°55'8 7.4
2014-Aug-28 19:29S 34°44' E 019°03'7 7.7
2014-Aug-28 18:31S 34°47' E 019°11'8 7.2
2014-Aug-28 17:28S 34°50' E 019°20'27 6.4
2014-Aug-28 13:16S 34°58' E 019°51'110 6.1
2014-Aug-27 19:26S 34°47' E 022°04'7 7.5
2014-Aug-27 18:29S 34°46' E 022°13'185 9.2
2014-Aug-26 22:15S 34°10' E 025°53'5210.9
2014-Aug-26 17:29S 33°48' E 026°50'1111.6
2014-Aug-26 16:30S 33°41' E 027°01'1212.3
2014-Aug-26 15:31S 33°34' E 027°13'1412.6
2014-Aug-26 14:23S 33°26' E 027°27'10410.3
2014-Aug-26 04:22S 32°23' E 029°06'7911.6
2014-Aug-25 21:30S 31°24' E 030°08'1612.2
2014-Aug-25 20:11S 31°12' E 030°20'812.2
2014-Aug-25 19:33S 31°05' E 030°25'1311.8
2014-Aug-25 18:28S 30°54' E 030°33'4210.3
2014-Aug-25 14:25S 30°18' E 030°56'7 8.1
2014-Aug-25 13:32S 30°12' E 031°00'7 7.3
2014-Aug-25 12:33S 30°05' E 031°04'7 6.7
2014-Aug-25 11:33S 29°59' E 031°08'6 6.1
2014-Aug-25 10:33S 29°54' E 031°11'4 4.3
2014-Aug-25 09:33S 29°50' E 031°12'3 3.3
2014-Aug-25 08:33S 29°46' E 031°11'8 7.7
2014-Aug-25 07:33S 29°41' E 031°17'8 8.2
2014-Aug-25 06:33S 29°35' E 031°24'8 8.1
2014-Aug-25 05:33S 29°30' E 031°31'8 8.0
2014-Aug-25 04:33S 29°25' E 031°38'8 8.0
2014-Aug-25 03:31S 29°19' E 031°45'  

Dump ship's entire track history